Pagrindinis puslapis
METAR-TAF:

METAR-TAF

Oro uostai :

Erbilis, Irakas

platuma: 36-14-15N, ilguma: 43-57-47E, Aukštis: 415 m

Dabartinis oras

Ataskaita buvo paskelbta 38 minutes, ne 09:00 UTC
Vėjas 6 kt iš Pietų/Pietryčių
Temperatūra 18°C
Drėgmė 52%
Slėgis 1013 hPa
Matomumas: 8000 m

METAR: ORER 290900Z 15006KT 8000 NSC 18/08 Q1013 NOSIG

Laikas: 12:38 (09:38 UTC)

Prognozė

Ataskaita buvo paskelbta 5 valandos ir 38 minutes, ne 04:00 UTC
Prognozė galioja nuo 29 metu 06 UTC su 01 metu 06 UTC
Vėjas 3 kt nuo kintamojo kryptimis
Matomumas: 7000 m
Tapsmas
nuo 29 metu 10 UTC su 29 metu 12 UTC
Vėjas 8 kt iš Pietryčių
Išsisklaidę debesys ne aukštis 3000 ft

TAF: ORER 290400Z 2906/0106 VRB03KT 7000 NSC BECMG 2910/2912 14008KT SCT030

Orai ataskaitas ir orų prognozės (METAR, TAF).

turimą stotys yra geltonos ir raudonos taškus žemėlapyje.

Perkelti pele per norėdami pamatyti stoties vardą.

Tada spustelėkite, norėdami matyti oro stebėjimo ir prognozės.

Norėdami pakeisti žemėlapį: spustelėkite ant žalios mygtukų su juodo kryžiaus žemyn,; žalią mygtuką su brūkšneliu, jei norite nutolinti; arba žalių rodyklių gretimoms žemėlapius.


METAR-TAF: